createdAt,value
2023-05-31T06:21:59.393Z,15.57
2023-05-31T06:31:59.358Z,16.40
2023-05-31T06:42:00.244Z,16.24
2023-05-31T06:51:59.177Z,16.30
2023-05-31T07:01:59.269Z,17.33
2023-05-31T07:11:59.362Z,19.61
2023-05-31T07:21:59.381Z,17.60
2023-05-31T07:31:59.240Z,18.00
2023-05-31T07:41:59.413Z,20.66
2023-05-31T07:51:59.477Z,19.28
2023-05-31T08:01:59.401Z,19.79
2023-05-31T08:11:59.693Z,20.90
2023-05-31T08:21:59.675Z,19.97
2023-05-31T08:31:59.846Z,20.72
2023-05-31T08:41:59.599Z,20.35
2023-05-31T08:51:59.652Z,20.43
2023-05-31T09:01:59.785Z,21.07
2023-05-31T09:11:59.691Z,21.11
2023-05-31T09:21:59.662Z,21.14
2023-05-31T09:32:00.747Z,20.68
2023-05-31T09:41:59.600Z,20.37
2023-05-31T09:51:59.648Z,21.45
2023-05-31T10:01:59.651Z,21.54
2023-05-31T10:12:00.589Z,21.40
2023-05-31T10:21:59.652Z,21.82
2023-05-31T10:31:59.611Z,23.20
2023-05-31T10:41:59.667Z,21.59
2023-05-31T10:51:59.743Z,23.26
2023-05-31T11:01:59.650Z,22.64
2023-05-31T11:11:59.775Z,22.24
2023-05-31T11:21:59.617Z,22.01
2023-05-31T11:31:59.748Z,24.28
2023-05-31T11:41:59.772Z,23.06
2023-05-31T11:51:59.722Z,22.25
2023-05-31T12:01:59.683Z,23.04
2023-05-31T12:11:59.852Z,22.73
2023-05-31T12:21:59.740Z,23.14
2023-05-31T12:31:59.868Z,23.13
2023-05-31T12:41:59.872Z,22.38
2023-05-31T12:51:59.716Z,22.79
2023-05-31T13:01:59.919Z,23.39
2023-05-31T13:11:59.854Z,23.12
2023-05-31T13:21:59.905Z,24.26
2023-05-31T13:31:59.702Z,23.67
2023-05-31T13:41:59.838Z,23.58
2023-05-31T13:51:59.761Z,24.20
2023-05-31T14:01:59.825Z,24.56
2023-05-31T14:11:59.948Z,24.79
2023-05-31T14:22:00.165Z,25.01
2023-05-31T14:32:00.006Z,24.75
2023-05-31T14:42:00.479Z,24.44
2023-05-31T14:52:00.483Z,25.35
2023-05-31T15:02:00.432Z,24.94
2023-05-31T15:12:00.652Z,24.86
2023-05-31T15:22:00.795Z,24.91
2023-05-31T15:32:00.452Z,24.84
2023-05-31T15:42:00.534Z,25.38
2023-05-31T15:52:00.389Z,25.22
2023-05-31T16:02:00.591Z,25.35
2023-05-31T16:12:00.435Z,25.18
2023-05-31T16:22:00.576Z,24.45
2023-05-31T16:32:00.587Z,24.66
2023-05-31T16:42:00.422Z,24.62
2023-05-31T16:52:00.723Z,24.55
2023-05-31T17:02:00.604Z,24.66
2023-05-31T17:12:00.524Z,24.39
2023-05-31T17:22:00.871Z,24.02
2023-05-31T17:32:00.886Z,23.72
2023-05-31T17:42:00.722Z,23.27
2023-05-31T17:52:12.297Z,23.06
2023-05-31T18:02:00.900Z,22.79
2023-05-31T18:12:00.726Z,22.61
2023-05-31T18:22:00.946Z,22.35
2023-05-31T18:32:00.663Z,22.09
2023-05-31T18:42:00.846Z,21.62
2023-05-31T18:52:01.000Z,21.58
2023-05-31T19:02:01.163Z,20.98
2023-05-31T19:12:01.520Z,20.49
2023-05-31T19:22:01.325Z,19.97
